sensor_id;sensor_type;location;lat;lon;timestamp;pressure;altitude;pressure_sealevel;temperature;humidity
37202;BME280;37799;52.390;6.136;2022-12-07T00:01:22;101719.16;;;1.80;100.00
37202;BME280;37799;52.390;6.136;2022-12-07T00:03:49;101724.25;;;1.80;100.00
37202;BME280;37799;52.390;6.136;2022-12-07T00:06:16;101725.22;;;1.83;100.00
37202;BME280;37799;52.390;6.136;2022-12-07T00:08:42;101717.66;;;1.88;100.00
37202;BME280;37799;52.390;6.136;2022-12-07T00:11:10;101715.38;;;2.00;100.00
37202;BME280;37799;52.390;6.136;2022-12-07T00:13:36;101710.41;;;2.06;100.00
37202;BME280;37799;52.390;6.136;2022-12-07T00:16:05;101715.59;;;2.09;100.00
37202;BME280;37799;52.390;6.136;2022-12-07T00:18:31;101710.56;;;2.12;100.00
37202;BME280;37799;52.390;6.136;2022-12-07T00:21:05;101703.81;;;2.16;100.00
37202;BME280;37799;52.390;6.136;2022-12-07T00:23:31;101697.72;;;2.09;100.00
37202;BME280;37799;52.390;6.136;2022-12-07T00:26:03;101706.97;;;2.04;100.00
37202;BME280;37799;52.390;6.136;2022-12-07T00:28:29;101694.16;;;2.02;100.00
37202;BME280;37799;52.390;6.136;2022-12-07T00:31:00;101700.19;;;2.06;100.00
37202;BME280;37799;52.390;6.136;2022-12-07T00:33:26;101692.50;;;2.04;100.00
37202;BME280;37799;52.390;6.136;2022-12-07T00:35:58;101692.47;;;2.03;100.00
37202;BME280;37799;52.390;6.136;2022-12-07T00:38:24;101695.78;;;1.99;100.00
37202;BME280;37799;52.390;6.136;2022-12-07T00:40:57;101697.19;;;1.86;100.00
37202;BME280;37799;52.390;6.136;2022-12-07T00:43:22;101684.25;;;1.80;100.00
37202;BME280;37799;52.390;6.136;2022-12-07T00:45:48;101695.16;;;1.71;100.00
37202;BME280;37799;52.390;6.136;2022-12-07T00:48:13;101694.03;;;1.60;100.00
37202;BME280;37799;52.390;6.136;2022-12-07T00:50:38;101695.56;;;1.55;100.00
37202;BME280;37799;52.390;6.136;2022-12-07T00:53:03;101692.88;;;1.49;100.00
37202;BME280;37799;52.390;6.136;2022-12-07T00:55:33;101691.91;;;1.44;100.00
37202;BME280;37799;52.390;6.136;2022-12-07T00:57:58;101688.50;;;1.43;100.00
37202;BME280;37799;52.390;6.136;2022-12-07T01:00:23;101688.38;;;1.39;100.00
37202;BME280;37799;52.390;6.136;2022-12-07T01:02:48;101677.22;;;1.35;100.00
37202;BME280;37799;52.390;6.136;2022-12-07T01:05:14;101678.84;;;1.32;100.00
37202;BME280;37799;52.390;6.136;2022-12-07T01:07:39;101679.56;;;1.28;100.00
37202;BME280;37799;52.390;6.136;2022-12-07T01:10:05;101683.81;;;1.27;100.00
37202;BME280;37799;52.390;6.136;2022-12-07T01:12:31;101682.91;;;1.25;100.00
37202;BME280;37799;52.390;6.136;2022-12-07T01:14:56;101682.06;;;1.25;100.00
37202;BME280;37799;52.390;6.136;2022-12-07T01:17:21;101679.44;;;1.22;100.00
37202;BME280;37799;52.390;6.136;2022-12-07T01:19:46;101684.53;;;1.22;100.00
37202;BME280;37799;52.390;6.136;2022-12-07T01:22:12;101684.63;;;1.25;100.00
37202;BME280;37799;52.390;6.136;2022-12-07T01:24:37;101688.81;;;1.23;100.00
37202;BME280;37799;52.390;6.136;2022-12-07T01:27:02;101678.50;;;1.18;100.00
37202;BME280;37799;52.390;6.136;2022-12-07T01:29:28;101680.19;;;1.17;100.00
37202;BME280;37799;52.390;6.136;2022-12-07T01:31:53;101683.53;;;1.16;100.00
37202;BME280;37799;52.390;6.136;2022-12-07T01:34:18;101686.06;;;1.15;100.00
37202;BME280;37799;52.390;6.136;2022-12-07T01:36:43;101684.28;;;1.12;100.00
37202;BME280;37799;52.390;6.136;2022-12-07T01:39:09;101679.19;;;1.12;100.00
37202;BME280;37799;52.390;6.136;2022-12-07T01:41:38;101681.81;;;1.15;100.00
37202;BME280;37799;52.390;6.136;2022-12-07T01:44:21;101687.09;;;1.22;100.00
37202;BME280;37799;52.390;6.136;2022-12-07T01:46:58;101678.56;;;1.21;100.00
37202;BME280;37799;52.390;6.136;2022-12-07T01:49:48;101680.13;;;1.16;100.00
37202;BME280;37799;52.390;6.136;2022-12-07T01:54:43;101678.53;;;1.20;100.00
37202;BME280;37799;52.390;6.136;2022-12-07T01:57:09;101668.22;;;1.16;100.00
37202;BME280;37799;52.390;6.136;2022-12-07T01:59:35;101675.81;;;1.13;100.00
37202;BME280;37799;52.390;6.136;2022-12-07T02:02:02;101675.72;;;1.09;100.00
37202;BME280;37799;52.390;6.136;2022-12-07T02:04:30;101679.16;;;1.11;100.00
37202;BME280;37799;52.390;6.136;2022-12-07T02:06:55;101675.75;;;1.10;100.00
37202;BME280;37799;52.390;6.136;2022-12-07T02:09:23;101671.44;;;1.08;100.00
37202;BME280;37799;52.390;6.136;2022-12-07T02:11:48;101671.38;;;1.05;100.00
37202;BME280;37799;52.390;6.136;2022-12-07T02:14:14;101673.84;;;1.03;100.00
37202;BME280;37799;52.390;6.136;2022-12-07T02:19:58;101673.78;;;1.00;100.00
37202;BME280;37799;52.390;6.136;2022-12-07T02:28:33;101675.50;;;1.01;100.00
37202;BME280;37799;52.390;6.136;2022-12-07T02:31:12;101673.09;;;1.06;100.00
37202;BME280;37799;52.390;6.136;2022-12-07T02:33:47;101679.09;;;1.08;100.00
37202;BME280;37799;52.390;6.136;2022-12-07T02:36:20;101674.09;;;1.12;100.00
37202;BME280;37799;52.390;6.136;2022-12-07T02:39:11;101676.06;;;1.23;100.00
37202;BME280;37799;52.390;6.136;2022-12-07T02:41:46;101664.44;;;1.34;100.00
37202;BME280;37799;52.390;6.136;2022-12-07T02:44:18;101668.03;;;1.42;100.00
37202;BME280;37799;52.390;6.136;2022-12-07T02:46:58;101666.47;;;1.47;100.00
37202;BME280;37799;52.390;6.136;2022-12-07T02:49:26;101667.50;;;1.55;100.00
37202;BME280;37799;52.390;6.136;2022-12-07T02:51:52;101670.28;;;1.64;100.00
37202;BME280;37799;52.390;6.136;2022-12-07T02:54:20;101665.44;;;1.75;100.00
37202;BME280;37799;52.390;6.136;2022-12-07T02:59:39;101664.16;;;1.94;100.00
37202;BME280;37799;52.390;6.136;2022-12-07T03:05:25;101669.63;;;2.09;100.00
37202;BME280;37799;52.390;6.136;2022-12-07T03:13:20;101680.41;;;2.35;100.00
37202;BME280;37799;52.390;6.136;2022-12-07T03:15:58;101683.09;;;2.43;100.00
37202;BME280;37799;52.390;6.136;2022-12-07T03:18:30;101663.63;;;2.48;100.00
37202;BME280;37799;52.390;6.136;2022-12-07T03:21:01;101671.47;;;2.57;100.00
37202;BME280;37799;52.390;6.136;2022-12-07T03:23:28;101680.19;;;2.66;100.00
37202;BME280;37799;52.390;6.136;2022-12-07T03:25:58;101683.56;;;2.65;100.00
37202;BME280;37799;52.390;6.136;2022-12-07T03:28:27;101675.97;;;2.70;100.00
37202;BME280;37799;52.390;6.136;2022-12-07T03:33:36;101676.78;;;2.67;100.00
37202;BME280;37799;52.390;6.136;2022-12-07T03:36:08;101658.91;;;2.69;100.00
37202;BME280;37799;52.390;6.136;2022-12-07T03:38:50;101664.69;;;2.59;100.00
37202;BME280;37799;52.390;6.136;2022-12-07T03:41:24;101667.28;;;2.60;100.00
37202;BME280;37799;52.390;6.136;2022-12-07T03:43:51;101668.97;;;2.60;100.00
37202;BME280;37799;52.390;6.136;2022-12-07T03:49:13;101661.88;;;2.47;100.00
37202;BME280;37799;52.390;6.136;2022-12-07T03:54:45;101662.34;;;2.27;100.00
37202;BME280;37799;52.390;6.136;2022-12-07T03:57:12;101657.88;;;2.19;100.00
37202;BME280;37799;52.390;6.136;2022-12-07T03:59:39;101657.59;;;2.05;100.00
37202;BME280;37799;52.390;6.136;2022-12-07T04:02:07;101653.25;;;2.01;100.00
37202;BME280;37799;52.390;6.136;2022-12-07T04:04:33;101650.69;;;2.01;100.00
37202;BME280;37799;52.390;6.136;2022-12-07T04:06:58;101646.47;;;2.03;100.00
37202;BME280;37799;52.390;6.136;2022-12-07T04:09:23;101652.59;;;2.10;100.00
37202;BME280;37799;52.390;6.136;2022-12-07T04:11:49;101654.22;;;2.07;100.00
37202;BME280;37799;52.390;6.136;2022-12-07T04:14:14;101653.22;;;1.99;100.00
37202;BME280;37799;52.390;6.136;2022-12-07T04:16:51;101644.41;;;1.87;100.00
37202;BME280;37799;52.390;6.136;2022-12-07T04:19:19;101643.31;;;1.75;100.00
37202;BME280;37799;52.390;6.136;2022-12-07T04:21:45;101653.41;;;1.69;100.00
37202;BME280;37799;52.390;6.136;2022-12-07T04:24:12;101649.72;;;1.58;100.00
37202;BME280;37799;52.390;6.136;2022-12-07T04:26:38;101649.50;;;1.49;100.00
37202;BME280;37799;52.390;6.136;2022-12-07T04:29:03;101641.69;;;1.43;100.00
37202;BME280;37799;52.390;6.136;2022-12-07T04:31:28;101633.97;;;1.40;100.00
37202;BME280;37799;52.390;6.136;2022-12-07T04:33:53;101645.75;;;1.35;100.00
37202;BME280;37799;52.390;6.136;2022-12-07T04:36:19;101635.31;;;1.26;100.00
37202;BME280;37799;52.390;6.136;2022-12-07T04:38:45;101637.69;;;1.18;100.00
37202;BME280;37799;52.390;6.136;2022-12-07T04:41:11;101631.81;;;1.22;100.00
37202;BME280;37799;52.390;6.136;2022-12-07T04:43:36;101635.31;;;1.26;100.00
37202;BME280;37799;52.390;6.136;2022-12-07T04:46:02;101631.06;;;1.26;100.00
37202;BME280;37799;52.390;6.136;2022-12-07T04:48:28;101637.09;;;1.30;100.00
37202;BME280;37799;52.390;6.136;2022-12-07T04:50:53;101636.16;;;1.26;100.00
37202;BME280;37799;52.390;6.136;2022-12-07T04:53:19;101640.25;;;1.18;100.00
37202;BME280;37799;52.390;6.136;2022-12-07T04:55:44;101638.44;;;1.15;100.00
37202;BME280;37799;52.390;6.136;2022-12-07T04:58:10;101641.78;;;1.13;100.00
37202;BME280;37799;52.390;6.136;2022-12-07T05:00:35;101647.03;;;1.17;100.00
37202;BME280;37799;52.390;6.136;2022-12-07T05:03:01;101641.25;;;1.25;100.00
37202;BME280;37799;52.390;6.136;2022-12-07T05:05:26;101638.06;;;1.33;100.00
37202;BME280;37799;52.390;6.136;2022-12-07T05:07:51;101645.31;;;1.53;100.00
37202;BME280;37799;52.390;6.136;2022-12-07T05:10:17;101642.28;;;1.69;100.00
37202;BME280;37799;52.390;6.136;2022-12-07T05:12:42;101661.38;;;2.22;100.00
37202;BME280;37799;52.390;6.136;2022-12-07T05:15:08;101658.94;;;2.27;100.00
37202;BME280;37799;52.390;6.136;2022-12-07T05:17:33;101642.69;;;2.25;100.00
37202;BME280;37799;52.390;6.136;2022-12-07T05:19:58;101637.63;;;2.26;100.00
37202;BME280;37799;52.390;6.136;2022-12-07T05:22:24;101632.03;;;2.46;100.00
37202;BME280;37799;52.390;6.136;2022-12-07T05:24:53;101633.81;;;2.48;100.00
37202;BME280;37799;52.390;6.136;2022-12-07T05:27:18;101644.19;;;2.57;100.00
37202;BME280;37799;52.390;6.136;2022-12-07T05:29:44;101639.00;;;2.53;100.00
37202;BME280;37799;52.390;6.136;2022-12-07T05:32:09;101650.94;;;2.52;100.00
37202;BME280;37799;52.390;6.136;2022-12-07T05:34:34;101648.22;;;2.46;100.00
37202;BME280;37799;52.390;6.136;2022-12-07T05:36:59;101643.09;;;2.45;100.00
37202;BME280;37799;52.390;6.136;2022-12-07T05:39:25;101642.19;;;2.41;100.00
37202;BME280;37799;52.390;6.136;2022-12-07T05:41:50;101640.47;;;2.42;100.00
37202;BME280;37799;52.390;6.136;2022-12-07T05:44:34;101638.72;;;2.38;100.00
37202;BME280;37799;52.390;6.136;2022-12-07T05:46:59;101637.84;;;2.37;100.00
37202;BME280;37799;52.390;6.136;2022-12-07T05:49:25;101638.81;;;2.44;100.00
37202;BME280;37799;52.390;6.136;2022-12-07T05:51:50;101626.91;;;2.46;100.00
37202;BME280;37799;52.390;6.136;2022-12-07T05:54:15;101623.47;;;2.44;100.00
37202;BME280;37799;52.390;6.136;2022-12-07T05:56:40;101629.38;;;2.40;100.00
37202;BME280;37799;52.390;6.136;2022-12-07T05:59:06;101625.81;;;2.33;100.00
37202;BME280;37799;52.390;6.136;2022-12-07T06:02:00;101618.63;;;2.15;100.00
37202;BME280;37799;52.390;6.136;2022-12-07T06:04:28;101616.63;;;2.00;100.00
37202;BME280;37799;52.390;6.136;2022-12-07T06:06:53;101613.00;;;1.91;100.00
37202;BME280;37799;52.390;6.136;2022-12-07T06:09:20;101623.81;;;1.79;100.00
37202;BME280;37799;52.390;6.136;2022-12-07T06:11:45;101620.88;;;1.62;100.00
37202;BME280;37799;52.390;6.136;2022-12-07T06:14:29;101620.66;;;1.53;100.00
37202;BME280;37799;52.390;6.136;2022-12-07T06:16:54;101620.72;;;1.56;100.00
37202;BME280;37799;52.390;6.136;2022-12-07T06:19:20;101624.03;;;1.52;100.00
37202;BME280;37799;52.390;6.136;2022-12-07T06:21:45;101626.59;;;1.52;100.00
37202;BME280;37799;52.390;6.136;2022-12-07T06:24:12;101625.78;;;1.55;100.00
37202;BME280;37799;52.390;6.136;2022-12-07T06:26:39;101618.88;;;1.49;100.00
37202;BME280;37799;52.390;6.136;2022-12-07T06:29:04;101626.25;;;1.38;100.00
37202;BME280;37799;52.390;6.136;2022-12-07T06:31:30;101627.00;;;1.33;100.00
37202;BME280;37799;52.390;6.136;2022-12-07T06:33:59;101622.56;;;1.26;100.00
37202;BME280;37799;52.390;6.136;2022-12-07T06:36:24;101624.06;;;1.17;100.00
37202;BME280;37799;52.390;6.136;2022-12-07T06:38:50;101620.56;;;1.14;100.00
37202;BME280;37799;52.390;6.136;2022-12-07T06:41:15;101623.00;;;1.09;100.00
37202;BME280;37799;52.390;6.136;2022-12-07T06:43:40;101632.97;;;1.00;100.00
37202;BME280;37799;52.390;6.136;2022-12-07T06:46:07;101632.78;;;0.93;100.00
37202;BME280;37799;52.390;6.136;2022-12-07T06:48:32;101635.88;;;0.81;100.00
37202;BME280;37799;52.390;6.136;2022-12-07T06:50:57;101635.63;;;0.72;100.00
37202;BME280;37799;52.390;6.136;2022-12-07T06:53:23;101636.25;;;0.65;100.00
37202;BME280;37799;52.390;6.136;2022-12-07T06:55:48;101637.19;;;0.67;100.00
37202;BME280;37799;52.390;6.136;2022-12-07T06:58:13;101642.50;;;0.76;100.00
37202;BME280;37799;52.390;6.136;2022-12-07T07:00:39;101641.69;;;0.77;100.00
37202;BME280;37799;52.390;6.136;2022-12-07T07:03:04;101636.78;;;0.83;100.00
37202;BME280;37799;52.390;6.136;2022-12-07T07:05:30;101645.34;;;0.86;100.00
37202;BME280;37799;52.390;6.136;2022-12-07T07:07:55;101647.94;;;0.88;100.00
37202;BME280;37799;52.390;6.136;2022-12-07T07:10:20;101645.22;;;0.80;100.00
37202;BME280;37799;52.390;6.136;2022-12-07T07:12:46;101637.38;;;0.74;100.00
37202;BME280;37799;52.390;6.136;2022-12-07T07:15:11;101644.09;;;0.71;100.00
37202;BME280;37799;52.390;6.136;2022-12-07T07:17:37;101634.75;;;0.71;100.00
37202;BME280;37799;52.390;6.136;2022-12-07T07:20:03;101641.50;;;0.69;100.00
37202;BME280;37799;52.390;6.136;2022-12-07T07:22:29;101637.19;;;0.67;100.00
37202;BME280;37799;52.390;6.136;2022-12-07T07:24:54;101643.97;;;0.66;100.00
37202;BME280;37799;52.390;6.136;2022-12-07T07:27:19;101639.75;;;0.67;100.00
37202;BME280;37799;52.390;6.136;2022-12-07T07:29:44;101649.19;;;0.71;100.00
37202;BME280;37799;52.390;6.136;2022-12-07T07:32:10;101650.94;;;0.73;100.00
37202;BME280;37799;52.390;6.136;2022-12-07T07:34:35;101647.53;;;0.73;100.00
37202;BME280;37799;52.390;6.136;2022-12-07T07:37:00;101655.25;;;0.76;100.00
37202;BME280;37799;52.390;6.136;2022-12-07T07:39:26;101650.19;;;0.77;100.00
37202;BME280;37799;52.390;6.136;2022-12-07T07:41:51;101649.53;;;0.83;100.00
37202;BME280;37799;52.390;6.136;2022-12-07T07:44:16;101651.66;;;0.99;100.00
37202;BME280;37799;52.390;6.136;2022-12-07T07:46:41;101646.91;;;1.13;100.00
37202;BME280;37799;52.390;6.136;2022-12-07T07:49:09;101653.09;;;1.23;100.00
37202;BME280;37799;52.390;6.136;2022-12-07T07:51:35;101645.69;;;1.32;100.00
37202;BME280;37799;52.390;6.136;2022-12-07T07:54:00;101648.41;;;1.39;100.00
37202;BME280;37799;52.390;6.136;2022-12-07T07:56:25;101654.66;;;1.52;100.00
37202;BME280;37799;52.390;6.136;2022-12-07T07:58:52;101649.91;;;1.67;100.00
37202;BME280;37799;52.390;6.136;2022-12-07T08:01:17;101647.56;;;1.75;100.00
37202;BME280;37799;52.390;6.136;2022-12-07T08:03:46;101657.88;;;1.80;100.00
37202;BME280;37799;52.390;6.136;2022-12-07T08:06:11;101664.72;;;1.82;100.00
37202;BME280;37799;52.390;6.136;2022-12-07T08:08:36;101651.16;;;1.83;100.00
37202;BME280;37799;52.390;6.136;2022-12-07T08:11:05;101654.84;;;1.96;100.00
37202;BME280;37799;52.390;6.136;2022-12-07T08:13:30;101657.53;;;2.02;100.00
37202;BME280;37799;52.390;6.136;2022-12-07T08:15:56;101654.22;;;2.07;100.00
37202;BME280;37799;52.390;6.136;2022-12-07T08:18:21;101658.59;;;2.12;100.00
37202;BME280;37799;52.390;6.136;2022-12-07T08:20:46;101657.84;;;2.17;100.00
37202;BME280;37799;52.390;6.136;2022-12-07T08:23:12;101662.59;;;2.40;100.00
37202;BME280;37799;52.390;6.136;2022-12-07T08:25:37;101662.72;;;2.46;100.00
37202;BME280;37799;52.390;6.136;2022-12-07T08:28:03;101662.94;;;2.56;100.00
37202;BME280;37799;52.390;6.136;2022-12-07T08:30:29;101670.56;;;2.55;100.00
37202;BME280;37799;52.390;6.136;2022-12-07T08:32:55;101669.75;;;2.57;100.00
37202;BME280;37799;52.390;6.136;2022-12-07T08:35:21;101669.84;;;2.60;100.00
37202;BME280;37799;52.390;6.136;2022-12-07T08:37:46;101662.38;;;2.71;100.00
37202;BME280;37799;52.390;6.136;2022-12-07T08:40:12;101661.59;;;2.74;100.00
37202;BME280;37799;52.390;6.136;2022-12-07T08:42:44;101659.28;;;2.87;100.00
37202;BME280;37799;52.390;6.136;2022-12-07T08:45:12;101672.75;;;2.79;100.00
37202;BME280;37799;52.390;6.136;2022-12-07T08:47:41;101662.06;;;3.00;100.00
37202;BME280;37799;52.390;6.136;2022-12-07T08:50:09;101667.75;;;2.86;100.00
37202;BME280;37799;52.390;6.136;2022-12-07T08:52:36;101666.56;;;2.67;100.00
37202;BME280;37799;52.390;6.136;2022-12-07T08:55:03;101665.72;;;2.69;100.00
37202;BME280;37799;52.390;6.136;2022-12-07T08:57:30;101658.09;;;2.72;100.00
37202;BME280;37799;52.390;6.136;2022-12-07T08:59:57;101658.94;;;2.71;100.00
37202;BME280;37799;52.390;6.136;2022-12-07T09:02:22;101647.16;;;2.77;100.00
37202;BME280;37799;52.390;6.136;2022-12-07T09:04:48;101650.75;;;2.87;100.00
37202;BME280;37799;52.390;6.136;2022-12-07T09:07:13;101659.50;;;3.00;100.00
37202;BME280;37799;52.390;6.136;2022-12-07T09:09:38;101654.75;;;3.21;100.00
37202;BME280;37799;52.390;6.136;2022-12-07T09:12:04;101659.88;;;3.21;100.00
37202;BME280;37799;52.390;6.136;2022-12-07T09:14:29;101654.72;;;3.18;100.00
37202;BME280;37799;52.390;6.136;2022-12-07T09:16:55;101657.53;;;3.35;100.00
37202;BME280;37799;52.390;6.136;2022-12-07T09:19:20;101654.97;;;3.35;100.00
37202;BME280;37799;52.390;6.136;2022-12-07T09:21:45;101656.59;;;3.28;100.00
37202;BME280;37799;52.390;6.136;2022-12-07T09:24:12;101660.50;;;3.09;100.00
37202;BME280;37799;52.390;6.136;2022-12-07T09:26:37;101653.00;;;3.18;100.00
37202;BME280;37799;52.390;6.136;2022-12-07T09:29:04;101660.06;;;3.32;100.00
37202;BME280;37799;52.390;6.136;2022-12-07T09:31:29;101666.44;;;3.57;100.00
37202;BME280;37799;52.390;6.136;2022-12-07T09:33:56;101671.00;;;3.76;100.00
37202;BME280;37799;52.390;6.136;2022-12-07T09:36:22;101674.75;;;3.98;100.00
37202;BME280;37799;52.390;6.136;2022-12-07T09:38:47;101673.78;;;3.90;100.00
37202;BME280;37799;52.390;6.136;2022-12-07T09:41:13;101670.41;;;3.92;100.00
37202;BME280;37799;52.390;6.136;2022-12-07T09:43:38;101675.53;;;3.92;100.00
37202;BME280;37799;52.390;6.136;2022-12-07T09:46:05;101665.66;;;4.18;100.00
37202;BME280;37799;52.390;6.136;2022-12-07T09:48:34;101661.56;;;4.31;100.00
37202;BME280;37799;52.390;6.136;2022-12-07T09:51:14;101659.84;;;4.30;100.00
37202;BME280;37799;52.390;6.136;2022-12-07T09:53:41;101662.53;;;4.42;100.00
37202;BME280;37799;52.390;6.136;2022-12-07T09:56:08;101654.03;;;4.43;100.00
37202;BME280;37799;52.390;6.136;2022-12-07T09:58:34;101658.31;;;4.44;100.00
37202;BME280;37799;52.390;6.136;2022-12-07T10:03:33;101658.34;;;4.47;100.00
37202;BME280;37799;52.390;6.136;2022-12-07T10:05:59;101660.75;;;4.35;100.00
37202;BME280;37799;52.390;6.136;2022-12-07T10:08:25;101649.81;;;4.50;100.00
37202;BME280;37799;52.390;6.136;2022-12-07T10:10:53;101655.94;;;4.62;100.00
37202;BME280;37799;52.390;6.136;2022-12-07T10:13:33;101644.94;;;4.72;100.00
37202;BME280;37799;52.390;6.136;2022-12-07T10:15:59;101650.25;;;4.88;100.00
37202;BME280;37799;52.390;6.136;2022-12-07T10:18:36;101642.66;;;5.00;100.00
37202;BME280;37799;52.390;6.136;2022-12-07T10:23:29;101643.03;;;5.44;100.00
37202;BME280;37799;52.390;6.136;2022-12-07T10:25:54;101637.97;;;5.47;100.00
37202;BME280;37799;52.390;6.136;2022-12-07T10:28:21;101646.56;;;5.55;100.00
37202;BME280;37799;52.390;6.136;2022-12-07T10:30:47;101648.44;;;5.73;100.00
37202;BME280;37799;52.390;6.136;2022-12-07T10:33:48;101639.81;;;5.67;100.00
37202;BME280;37799;52.390;6.136;2022-12-07T10:36:24;101642.44;;;5.77;100.00
37202;BME280;37799;52.390;6.136;2022-12-07T10:39:40;101635.50;;;5.67;100.00
37202;BME280;37799;52.390;6.136;2022-12-07T10:42:00;101630.59;;;5.98;100.00
37202;BME280;37799;52.390;6.136;2022-12-07T10:44:32;101636.44;;;5.75;100.00
37202;BME280;37799;52.390;6.136;2022-12-07T10:50:07;101630.41;;;5.72;100.00
37202;BME280;37799;52.390;6.136;2022-12-07T10:58:17;101621.63;;;5.44;100.00
37202;BME280;37799;52.390;6.136;2022-12-07T11:01:10;101606.25;;;5.47;100.00
37202;BME280;37799;52.390;6.136;2022-12-07T11:06:38;101602.13;;;5.67;100.00
37202;BME280;37799;52.390;6.136;2022-12-07T11:12:07;101604.78;;;5.84;100.00
37202;BME280;37799;52.390;6.136;2022-12-07T11:17:43;101597.16;;;5.96;100.00
37202;BME280;37799;52.390;6.136;2022-12-07T11:23:03;101589.56;;;6.19;100.00
37202;BME280;37799;52.390;6.136;2022-12-07T11:26:01;101584.47;;;6.33;100.00
37202;BME280;37799;52.390;6.136;2022-12-07T11:28:52;101577.69;;;6.55;100.00
37202;BME280;37799;52.390;6.136;2022-12-07T11:31:41;101580.28;;;6.65;100.00
37202;BME280;37799;52.390;6.136;2022-12-07T11:37:13;101576.91;;;6.91;100.00
37202;BME280;37799;52.390;6.136;2022-12-07T11:39:48;101574.31;;;6.86;100.00
37202;BME280;37799;52.390;6.136;2022-12-07T11:42:21;101580.34;;;7.09;100.00
37202;BME280;37799;52.390;6.136;2022-12-07T11:44:55;101581.19;;;7.21;100.00
37202;BME280;37799;52.390;6.136;2022-12-07T11:50:03;101574.22;;;7.87;100.00
37202;BME280;37799;52.390;6.136;2022-12-07T11:52:47;101574.25;;;7.75;100.00
37202;BME280;37799;52.390;6.136;2022-12-07T11:55:21;101569.16;;;7.49;100.00
37202;BME280;37799;52.390;6.136;2022-12-07T11:57:53;101564.00;;;7.35;100.00
37202;BME280;37799;52.390;6.136;2022-12-07T12:00:23;101560.59;;;7.30;100.00
37202;BME280;37799;52.390;6.136;2022-12-07T12:03:10;101562.31;;;7.09;100.00
37202;BME280;37799;52.390;6.136;2022-12-07T12:05:39;101560.59;;;6.96;100.00
37202;BME280;37799;52.390;6.136;2022-12-07T12:08:18;101554.56;;;7.09;100.00
37202;BME280;37799;52.390;6.136;2022-12-07T12:10:58;101559.69;;;7.49;100.00
37202;BME280;37799;52.390;6.136;2022-12-07T12:19:15;101550.13;;;7.92;100.00
37202;BME280;37799;52.390;6.136;2022-12-07T12:21:46;101547.34;;;8.40;100.00
37202;BME280;37799;52.390;6.136;2022-12-07T12:24:19;101539.63;;;8.31;100.00
37202;BME280;37799;52.390;6.136;2022-12-07T12:27:37;101536.22;;;8.25;100.00
37202;BME280;37799;52.390;6.136;2022-12-07T12:29:43;101534.59;;;8.06;100.00
37202;BME280;37799;52.390;6.136;2022-12-07T12:32:16;101530.19;;;8.26;100.00
37202;BME280;37799;52.390;6.136;2022-12-07T12:42:56;101530.03;;;8.58;100.00
37202;BME280;37799;52.390;6.136;2022-12-07T12:45:23;101529.94;;;8.74;100.00
37202;BME280;37799;52.390;6.136;2022-12-07T12:50:43;101532.59;;;8.63;100.00
37202;BME280;37799;52.390;6.136;2022-12-07T12:53:24;101532.66;;;8.51;100.00
37202;BME280;37799;52.390;6.136;2022-12-07T12:58:36;101524.03;;;8.53;100.00
37202;BME280;37799;52.390;6.136;2022-12-07T13:01:37;101524.69;;;8.86;100.00
37202;BME280;37799;52.390;6.136;2022-12-07T13:04:21;101527.31;;;8.78;100.00
37202;BME280;37799;52.390;6.136;2022-12-07T13:06:49;101527.50;;;8.51;100.00
37202;BME280;37799;52.390;6.136;2022-12-07T13:09:21;101519.88;;;8.26;100.00
37202;BME280;37799;52.390;6.136;2022-12-07T13:11:48;101513.06;;;8.13;100.00
37202;BME280;37799;52.390;6.136;2022-12-07T13:17:03;101498.59;;;7.80;100.00
37202;BME280;37799;52.390;6.136;2022-12-07T13:25:04;101489.22;;;7.59;100.00
37202;BME280;37799;52.390;6.136;2022-12-07T13:27:30;101490.97;;;7.42;100.00
37202;BME280;37799;52.390;6.136;2022-12-07T13:29:57;101490.16;;;7.25;100.00
37202;BME280;37799;52.390;6.136;2022-12-07T13:32:28;101482.44;;;7.31;100.00
37202;BME280;37799;52.390;6.136;2022-12-07T13:34:54;101491.06;;;7.01;100.00
37202;BME280;37799;52.390;6.136;2022-12-07T13:37:28;101490.19;;;6.76;100.00
37202;BME280;37799;52.390;6.136;2022-12-07T13:39:56;101483.34;;;6.52;100.00
37202;BME280;37799;52.390;6.136;2022-12-07T13:42:28;101478.16;;;6.35;100.00
37202;BME280;37799;52.390;6.136;2022-12-07T13:44:54;101470.47;;;6.40;100.00
37202;BME280;37799;52.390;6.136;2022-12-07T13:49:55;101465.28;;;6.17;100.00
37202;BME280;37799;52.390;6.136;2022-12-07T13:52:26;101467.00;;;6.21;100.00
37202;BME280;37799;52.390;6.136;2022-12-07T13:54:58;101464.41;;;6.16;100.00
37202;BME280;37799;52.390;6.136;2022-12-07T13:57:28;101467.88;;;6.26;100.00
37202;BME280;37799;52.390;6.136;2022-12-07T13:59:55;101467.84;;;6.14;100.00
37202;BME280;37799;52.390;6.136;2022-12-07T14:02:27;101462.69;;;6.20;100.00
37202;BME280;37799;52.390;6.136;2022-12-07T14:05:09;101458.38;;;6.01;100.00
37202;BME280;37799;52.390;6.136;2022-12-07T14:07:35;101452.34;;;5.99;100.00
37202;BME280;37799;52.390;6.136;2022-12-07T14:10:04;101454.97;;;6.02;100.00
37202;BME280;37799;52.390;6.136;2022-12-07T14:12:31;101453.25;;;5.99;100.00
37202;BME280;37799;52.390;6.136;2022-12-07T14:14:59;101443.78;;;5.94;100.00
37202;BME280;37799;52.390;6.136;2022-12-07T14:17:27;101441.19;;;5.86;100.00
37202;BME280;37799;52.390;6.136;2022-12-07T14:19:55;101441.25;;;6.10;100.00
37202;BME280;37799;52.390;6.136;2022-12-07T14:22:38;101442.94;;;5.95;100.00
37202;BME280;37799;52.390;6.136;2022-12-07T14:25:19;101434.28;;;5.85;100.00
37202;BME280;37799;52.390;6.136;2022-12-07T14:27:58;101434.28;;;5.77;100.00
37202;BME280;37799;52.390;6.136;2022-12-07T14:30:27;101440.28;;;5.73;100.00
37202;BME280;37799;52.390;6.136;2022-12-07T14:33:12;101449.66;;;5.68;100.00